createdAt,value
2019-05-15T00:00:33.000Z,2.04
2019-05-15T00:01:33.000Z,2.21
2019-05-15T00:02:33.000Z,2.20
2019-05-15T00:03:33.000Z,2.06
2019-05-15T00:04:33.000Z,2.15
2019-05-15T00:05:33.000Z,1.99
2019-05-15T00:06:33.000Z,1.95
2019-05-15T00:07:33.000Z,2.04
2019-05-15T00:08:33.000Z,2.00
2019-05-15T00:09:33.000Z,1.78
2019-05-15T00:10:33.000Z,2.11
2019-05-15T00:11:33.000Z,2.17
2019-05-15T00:12:33.000Z,2.22
2019-05-15T00:13:33.000Z,2.06
2019-05-15T00:14:33.000Z,1.91
2019-05-15T00:15:33.000Z,2.16
2019-05-15T00:16:33.000Z,2.19
2019-05-15T00:17:33.000Z,2.20
2019-05-15T00:18:33.000Z,2.26
2019-05-15T00:19:33.000Z,2.00
2019-05-15T00:20:33.000Z,1.88
2019-05-15T00:21:33.000Z,2.44
2019-05-15T00:22:33.000Z,2.31
2019-05-15T00:23:33.000Z,2.28
2019-05-15T00:24:33.000Z,2.35
2019-05-15T00:25:33.000Z,2.22
2019-05-15T00:26:33.000Z,2.29
2019-05-15T00:27:33.000Z,2.28
2019-05-15T00:28:33.000Z,2.09
2019-05-15T00:29:33.000Z,1.93
2019-05-15T00:30:33.000Z,2.21
2019-05-15T00:31:33.000Z,2.18
2019-05-15T00:32:33.000Z,2.09
2019-05-15T00:33:33.000Z,2.22
2019-05-15T00:34:33.000Z,2.02
2019-05-15T00:35:33.000Z,2.22
2019-05-15T00:36:33.000Z,2.15
2019-05-15T00:37:33.000Z,2.04
2019-05-15T00:38:33.000Z,2.16
2019-05-15T00:39:33.000Z,2.12
2019-05-15T00:40:33.000Z,2.10
2019-05-15T00:41:33.000Z,2.16
2019-05-15T00:42:33.000Z,2.01
2019-05-15T00:43:33.000Z,2.24
2019-05-15T00:44:33.000Z,2.19
2019-05-15T00:45:33.000Z,2.14
2019-05-15T00:46:33.000Z,2.10
2019-05-15T00:47:33.000Z,2.15
2019-05-15T00:48:33.000Z,2.13
2019-05-15T00:49:33.000Z,1.91
2019-05-15T00:50:33.000Z,2.28
2019-05-15T00:51:33.000Z,2.27
2019-05-15T00:52:33.000Z,2.14
2019-05-15T00:53:33.000Z,2.18
2019-05-15T00:54:33.000Z,2.17
2019-05-15T00:55:33.000Z,2.20
2019-05-15T00:56:33.000Z,2.28
2019-05-15T00:57:33.000Z,2.32
2019-05-15T00:58:33.000Z,2.20
2019-05-15T00:59:33.000Z,2.29
2019-05-15T01:00:33.000Z,2.34
2019-05-15T01:01:33.000Z,2.38
2019-05-15T01:02:33.000Z,2.21
2019-05-15T01:03:33.000Z,2.29
2019-05-15T01:04:33.000Z,2.20
2019-05-15T01:05:33.000Z,1.99
2019-05-15T01:06:33.000Z,2.13
2019-05-15T01:07:33.000Z,2.05
2019-05-15T01:08:33.000Z,2.07
2019-05-15T01:09:33.000Z,1.95
2019-05-15T01:10:34.000Z,1.88
2019-05-15T01:11:33.000Z,2.03
2019-05-15T01:12:33.000Z,2.02
2019-05-15T01:13:33.000Z,2.07
2019-05-15T01:14:33.000Z,2.01
2019-05-15T01:15:33.000Z,2.16
2019-05-15T01:16:33.000Z,2.03
2019-05-15T01:17:33.000Z,1.95
2019-05-15T01:18:33.000Z,2.07
2019-05-15T01:19:33.000Z,2.00
2019-05-15T01:20:33.000Z,1.84
2019-05-15T01:21:33.000Z,1.99
2019-05-15T01:22:33.000Z,2.05
2019-05-15T01:23:33.000Z,2.08
2019-05-15T01:24:33.000Z,1.96
2019-05-15T01:25:33.000Z,1.84
2019-05-15T01:26:33.000Z,1.85
2019-05-15T01:27:33.000Z,2.19
2019-05-15T01:28:33.000Z,2.10
2019-05-15T01:29:33.000Z,1.94
2019-05-15T01:30:33.000Z,2.12
2019-05-15T01:31:33.000Z,1.92
2019-05-15T01:32:33.000Z,2.13
2019-05-15T01:33:33.000Z,2.21
2019-05-15T01:34:33.000Z,2.15
2019-05-15T01:35:33.000Z,1.96
2019-05-15T01:36:33.000Z,2.03
2019-05-15T01:37:33.000Z,1.80
2019-05-15T01:38:33.000Z,1.81
2019-05-15T01:39:33.000Z,2.16
2019-05-15T01:40:33.000Z,2.10
2019-05-15T01:41:33.000Z,1.89
2019-05-15T01:42:33.000Z,2.00
2019-05-15T01:43:33.000Z,1.88
2019-05-15T01:44:33.000Z,1.76
2019-05-15T01:45:33.000Z,2.14
2019-05-15T01:46:33.000Z,1.92
2019-05-15T01:47:33.000Z,2.04
2019-05-15T01:48:33.000Z,1.99
2019-05-15T01:49:33.000Z,2.15
2019-05-15T01:50:33.000Z,2.06
2019-05-15T01:51:33.000Z,1.86
2019-05-15T01:52:33.000Z,1.98
2019-05-15T01:53:33.000Z,1.92
2019-05-15T01:54:33.000Z,1.89
2019-05-15T01:55:33.000Z,1.86
2019-05-15T01:56:33.000Z,1.99
2019-05-15T01:57:33.000Z,1.94
2019-05-15T01:58:33.000Z,2.03
2019-05-15T01:59:33.000Z,1.88
2019-05-15T02:00:33.000Z,1.88
2019-05-15T02:01:33.000Z,1.79
2019-05-15T02:02:34.000Z,1.98
2019-05-15T02:03:33.000Z,1.95
2019-05-15T02:04:33.000Z,2.13
2019-05-15T02:05:33.000Z,2.00
2019-05-15T02:06:33.000Z,1.94
2019-05-15T02:07:33.000Z,1.83
2019-05-15T02:08:33.000Z,1.85
2019-05-15T02:09:33.000Z,1.98
2019-05-15T02:10:33.000Z,1.96
2019-05-15T02:11:33.000Z,1.96
2019-05-15T02:12:33.000Z,1.94
2019-05-15T02:13:32.000Z,2.00
2019-05-15T02:14:32.000Z,1.77
2019-05-15T02:15:32.000Z,2.00
2019-05-15T02:16:32.000Z,1.73
2019-05-15T02:17:32.000Z,1.91
2019-05-15T02:18:32.000Z,1.97
2019-05-15T02:19:32.000Z,1.98
2019-05-15T02:20:32.000Z,1.90
2019-05-15T02:21:32.000Z,1.81
2019-05-15T02:22:32.000Z,1.70
2019-05-15T02:23:32.000Z,2.03
2019-05-15T02:24:33.000Z,1.89
2019-05-15T02:25:32.000Z,2.02
2019-05-15T02:26:32.000Z,2.05
2019-05-15T02:27:32.000Z,2.00
2019-05-15T02:28:32.000Z,2.07
2019-05-15T02:29:32.000Z,2.10
2019-05-15T02:30:32.000Z,2.12
2019-05-15T02:31:32.000Z,2.06
2019-05-15T02:32:32.000Z,2.10
2019-05-15T02:33:32.000Z,1.98
2019-05-15T02:34:32.000Z,1.92
2019-05-15T02:35:32.000Z,1.81
2019-05-15T02:36:32.000Z,1.85
2019-05-15T02:37:32.000Z,1.96
2019-05-15T02:38:32.000Z,2.09
2019-05-15T02:39:32.000Z,2.13
2019-05-15T02:40:32.000Z,1.98
2019-05-15T02:41:32.000Z,1.99
2019-05-15T02:42:32.000Z,2.09
2019-05-15T02:43:32.000Z,1.99
2019-05-15T02:44:32.000Z,2.00
2019-05-15T02:45:32.000Z,1.84
2019-05-15T02:46:32.000Z,2.05
2019-05-15T02:47:32.000Z,2.05
2019-05-15T02:48:32.000Z,1.92
2019-05-15T02:49:32.000Z,2.02
2019-05-15T02:50:32.000Z,1.98
2019-05-15T02:51:32.000Z,2.01
2019-05-15T02:52:32.000Z,1.89
2019-05-15T02:53:32.000Z,1.96
2019-05-15T02:54:32.000Z,1.96
2019-05-15T02:55:32.000Z,1.86
2019-05-15T02:56:32.000Z,1.71
2019-05-15T02:57:32.000Z,1.74
2019-05-15T02:58:32.000Z,1.94
2019-05-15T02:59:32.000Z,1.75
2019-05-15T03:00:32.000Z,1.62
2019-05-15T03:01:32.000Z,1.75
2019-05-15T03:02:32.000Z,1.83
2019-05-15T03:03:32.000Z,2.01
2019-05-15T03:04:32.000Z,1.81
2019-05-15T03:05:32.000Z,1.67
2019-05-15T03:06:32.000Z,1.83
2019-05-15T03:07:33.000Z,1.89
2019-05-15T03:08:32.000Z,2.03
2019-05-15T03:09:32.000Z,1.86
2019-05-15T03:10:32.000Z,1.88
2019-05-15T03:11:32.000Z,1.81
2019-05-15T03:12:32.000Z,1.85
2019-05-15T03:13:32.000Z,1.68
2019-05-15T03:14:32.000Z,2.06
2019-05-15T03:15:32.000Z,2.03
2019-05-15T03:16:32.000Z,2.09
2019-05-15T03:17:32.000Z,2.03
2019-05-15T03:18:32.000Z,1.90
2019-05-15T03:19:32.000Z,1.79
2019-05-15T03:20:32.000Z,1.83
2019-05-15T03:21:32.000Z,2.12
2019-05-15T03:22:32.000Z,2.12
2019-05-15T03:23:32.000Z,1.90
2019-05-15T03:24:32.000Z,2.00
2019-05-15T03:25:32.000Z,1.87
2019-05-15T03:26:32.000Z,2.02
2019-05-15T03:27:32.000Z,2.08
2019-05-15T03:28:32.000Z,2.04
2019-05-15T03:29:32.000Z,2.06
2019-05-15T03:30:32.000Z,1.94
2019-05-15T03:31:32.000Z,2.14
2019-05-15T03:32:32.000Z,2.10
2019-05-15T03:33:32.000Z,2.07
2019-05-15T03:34:32.000Z,1.93
2019-05-15T03:35:32.000Z,1.91
2019-05-15T03:36:32.000Z,2.08
2019-05-15T03:37:32.000Z,1.98
2019-05-15T03:38:32.000Z,2.02
2019-05-15T03:39:32.000Z,1.94
2019-05-15T03:40:32.000Z,1.88
2019-05-15T03:41:32.000Z,1.84
2019-05-15T03:42:32.000Z,2.00
2019-05-15T03:43:32.000Z,1.99
2019-05-15T03:44:32.000Z,1.93
2019-05-15T03:45:32.000Z,1.94
2019-05-15T03:46:32.000Z,2.07
2019-05-15T03:47:32.000Z,2.01
2019-05-15T03:48:32.000Z,1.92
2019-05-15T03:49:32.000Z,1.98
2019-05-15T03:50:32.000Z,1.90
2019-05-15T03:51:32.000Z,2.03
2019-05-15T03:52:32.000Z,1.97
2019-05-15T03:53:32.000Z,2.03
2019-05-15T03:54:32.000Z,1.92
2019-05-15T03:55:32.000Z,1.85
2019-05-15T03:56:32.000Z,1.79
2019-05-15T03:57:32.000Z,1.83
2019-05-15T03:58:32.000Z,1.78
2019-05-15T03:59:32.000Z,1.79
2019-05-15T04:00:32.000Z,1.79
2019-05-15T04:01:32.000Z,1.82
2019-05-15T04:02:32.000Z,1.88
2019-05-15T04:03:32.000Z,1.76
2019-05-15T04:04:32.000Z,1.87
2019-05-15T04:05:32.000Z,1.79
2019-05-15T04:06:32.000Z,1.91
2019-05-15T04:07:32.000Z,1.90
2019-05-15T04:08:32.000Z,1.73
2019-05-15T04:09:32.000Z,1.75
2019-05-15T04:10:32.000Z,1.66
2019-05-15T04:11:33.000Z,1.71
2019-05-15T04:12:32.000Z,1.91
2019-05-15T04:13:32.000Z,1.96
2019-05-15T04:14:32.000Z,1.81
2019-05-15T04:15:33.000Z,2.05
2019-05-15T04:16:33.000Z,2.01
2019-05-15T04:17:33.000Z,1.97
2019-05-15T04:18:33.000Z,1.85
2019-05-15T04:19:33.000Z,1.79
2019-05-15T04:20:33.000Z,1.83
2019-05-15T04:21:33.000Z,1.83
2019-05-15T04:22:33.000Z,1.84
2019-05-15T04:23:33.000Z,1.79
2019-05-15T04:24:33.000Z,1.86
2019-05-15T04:25:33.000Z,1.94
2019-05-15T04:26:33.000Z,1.98
2019-05-15T04:27:33.000Z,1.97
2019-05-15T04:28:33.000Z,1.90
2019-05-15T04:29:33.000Z,1.69
2019-05-15T04:30:33.000Z,1.60
2019-05-15T04:31:33.000Z,1.81
2019-05-15T04:32:33.000Z,1.87
2019-05-15T04:33:33.000Z,1.99
2019-05-15T04:34:33.000Z,2.27
2019-05-15T04:35:33.000Z,2.35
2019-05-15T04:36:33.000Z,2.34
2019-05-15T04:37:33.000Z,1.99
2019-05-15T04:38:33.000Z,2.03
2019-05-15T04:39:33.000Z,2.14
2019-05-15T04:40:33.000Z,2.01
2019-05-15T04:41:33.000Z,1.97
2019-05-15T04:42:33.000Z,1.99
2019-05-15T04:43:33.000Z,2.01
2019-05-15T04:44:33.000Z,1.87
2019-05-15T04:45:33.000Z,1.84
2019-05-15T04:46:32.000Z,1.92
2019-05-15T04:47:32.000Z,1.95
2019-05-15T04:48:32.000Z,1.95
2019-05-15T04:49:32.000Z,1.92
2019-05-15T04:50:32.000Z,1.88
2019-05-15T04:51:32.000Z,1.88
2019-05-15T04:52:32.000Z,1.94
2019-05-15T04:53:32.000Z,1.99
2019-05-15T04:54:32.000Z,1.97
2019-05-15T04:55:32.000Z,1.81
2019-05-15T04:56:32.000Z,1.95
2019-05-15T04:57:32.000Z,2.04
2019-05-15T04:58:32.000Z,1.98
2019-05-15T04:59:32.000Z,2.04
2019-05-15T05:00:32.000Z,2.02
2019-05-15T05:01:32.000Z,2.01
2019-05-15T05:02:32.000Z,2.06
2019-05-15T05:03:32.000Z,2.02
2019-05-15T05:04:32.000Z,2.05
2019-05-15T05:05:32.000Z,2.13
2019-05-15T05:06:32.000Z,2.10
2019-05-15T05:07:32.000Z,2.10
2019-05-15T05:08:32.000Z,2.08
2019-05-15T05:09:32.000Z,2.07
2019-05-15T05:10:32.000Z,2.10
2019-05-15T05:11:32.000Z,2.08
2019-05-15T05:12:32.000Z,2.07
2019-05-15T05:13:32.000Z,2.05
2019-05-15T05:14:32.000Z,2.01
2019-05-15T05:15:32.000Z,2.03
2019-05-15T05:16:32.000Z,1.93
2019-05-15T05:17:33.000Z,2.01
2019-05-15T05:18:33.000Z,2.14
2019-05-15T05:19:33.000Z,2.35
2019-05-15T05:20:33.000Z,2.15
2019-05-15T05:21:33.000Z,2.21
2019-05-15T05:22:33.000Z,2.23
2019-05-15T05:23:33.000Z,2.15
2019-05-15T05:24:33.000Z,2.09
2019-05-15T05:25:33.000Z,1.94
2019-05-15T05:26:33.000Z,2.12
2019-05-15T05:27:33.000Z,2.16
2019-05-15T05:28:33.000Z,2.01
2019-05-15T05:29:33.000Z,2.01
2019-05-15T05:30:33.000Z,2.00
2019-05-15T05:31:33.000Z,1.95
2019-05-15T05:32:33.000Z,2.02
2019-05-15T05:33:33.000Z,1.98
2019-05-15T05:34:33.000Z,1.91
2019-05-15T05:35:33.000Z,2.22
2019-05-15T05:36:33.000Z,2.19
2019-05-15T05:37:33.000Z,1.92
2019-05-15T05:38:33.000Z,1.94
2019-05-15T05:39:33.000Z,1.71
2019-05-15T05:40:33.000Z,1.78
2019-05-15T05:41:33.000Z,1.61
2019-05-15T05:42:33.000Z,1.43
2019-05-15T05:43:33.000Z,1.58
2019-05-15T05:44:33.000Z,1.30
2019-05-15T05:45:33.000Z,1.33
2019-05-15T05:46:33.000Z,1.40
2019-05-15T05:47:33.000Z,1.45
2019-05-15T05:48:32.000Z,1.55
2019-05-15T05:49:32.000Z,1.40
2019-05-15T05:50:32.000Z,1.22
2019-05-15T05:51:32.000Z,1.06
2019-05-15T05:52:32.000Z,1.07
2019-05-15T05:53:32.000Z,0.84
2019-05-15T05:54:32.000Z,1.02
2019-05-15T05:55:32.000Z,0.90
2019-05-15T05:56:32.000Z,0.73
2019-05-15T05:57:32.000Z,0.68
2019-05-15T05:58:32.000Z,0.61
2019-05-15T05:59:32.000Z,0.93
2019-05-15T06:00:32.000Z,0.76
2019-05-15T06:01:32.000Z,0.86
2019-05-15T06:02:32.000Z,1.09
2019-05-15T06:03:32.000Z,0.93
2019-05-15T06:04:32.000Z,1.09
2019-05-15T06:05:32.000Z,0.91
2019-05-15T06:06:32.000Z,1.02
2019-05-15T06:07:32.000Z,1.03
2019-05-15T06:08:32.000Z,0.98
2019-05-15T06:09:32.000Z,0.97
2019-05-15T06:10:32.000Z,1.18
2019-05-15T06:11:32.000Z,1.07
2019-05-15T06:12:33.000Z,1.05
2019-05-15T06:13:32.000Z,0.78
2019-05-15T06:14:32.000Z,0.89
2019-05-15T06:15:32.000Z,0.73
2019-05-15T06:16:32.000Z,0.67
2019-05-15T06:17:32.000Z,0.94
2019-05-15T06:18:32.000Z,0.90
2019-05-15T06:19:32.000Z,0.99
2019-05-15T06:20:32.000Z,0.91
2019-05-15T06:21:32.000Z,0.87
2019-05-15T06:22:32.000Z,0.99
2019-05-15T06:23:32.000Z,0.93
2019-05-15T06:24:32.000Z,0.87
2019-05-15T06:25:32.000Z,1.12
2019-05-15T06:26:32.000Z,1.04
2019-05-15T06:27:32.000Z,1.05
2019-05-15T06:28:32.000Z,1.02
2019-05-15T06:29:32.000Z,1.20
2019-05-15T06:30:32.000Z,1.12
2019-05-15T06:31:32.000Z,1.20
2019-05-15T06:32:32.000Z,1.05
2019-05-15T06:33:32.000Z,1.35
2019-05-15T06:34:32.000Z,1.29
2019-05-15T06:35:32.000Z,1.04
2019-05-15T06:36:32.000Z,1.03
2019-05-15T06:37:32.000Z,1.06
2019-05-15T06:38:32.000Z,0.72
2019-05-15T06:39:32.000Z,0.90
2019-05-15T06:40:32.000Z,1.14
2019-05-15T06:41:32.000Z,1.03
2019-05-15T06:42:32.000Z,0.95
2019-05-15T06:43:32.000Z,0.96
2019-05-15T06:44:32.000Z,0.75
2019-05-15T06:45:32.000Z,0.44
2019-05-15T06:46:32.000Z,0.62
2019-05-15T06:47:32.000Z,0.61
2019-05-15T06:48:32.000Z,0.57
2019-05-15T06:49:32.000Z,0.61
2019-05-15T06:50:32.000Z,0.46
2019-05-15T06:51:32.000Z,0.31
2019-05-15T06:52:32.000Z,0.22
2019-05-15T06:53:32.000Z,0.40
2019-05-15T06:54:32.000Z,0.30
2019-05-15T06:55:32.000Z,0.24
2019-05-15T06:56:32.000Z,0.09
2019-05-15T06:57:32.000Z,0.05
2019-05-15T06:58:32.000Z,0.09
2019-05-15T06:59:32.000Z,0.01
2019-05-15T07:00:32.000Z,-0.17
2019-05-15T07:01:32.000Z,-0.21
2019-05-15T07:02:32.000Z,-0.29
2019-05-15T07:03:32.000Z,-0.18
2019-05-15T07:04:32.000Z,-0.34
2019-05-15T07:05:32.000Z,-0.34
2019-05-15T07:30:49.000Z,0.11
2019-05-15T07:31:49.000Z,0.17
2019-05-15T07:32:49.000Z,0.28
2019-05-15T07:33:49.000Z,0.10
2019-05-15T07:34:49.000Z,-0.14
2019-05-15T07:35:49.000Z,0.04
2019-05-15T07:36:49.000Z,-0.02
2019-05-15T07:37:49.000Z,0.00
2019-05-15T07:38:49.000Z,0.02
2019-05-15T07:39:49.000Z,0.16
2019-05-15T07:40:49.000Z,0.43
2019-05-15T07:41:49.000Z,0.26
2019-05-15T07:42:49.000Z,0.23
2019-05-15T07:43:49.000Z,0.33
2019-05-15T07:44:49.000Z,0.50
2019-05-15T07:45:49.000Z,0.36
2019-05-15T07:46:50.000Z,0.40
2019-05-15T07:47:49.000Z,0.56
2019-05-15T07:48:49.000Z,0.27
2019-05-15T07:49:49.000Z,0.39
2019-05-15T07:50:49.000Z,0.35
2019-05-15T07:51:49.000Z,0.50
2019-05-15T07:52:49.000Z,0.39
2019-05-15T07:53:49.000Z,0.41
2019-05-15T07:54:49.000Z,0.42
2019-05-15T07:55:49.000Z,0.25
2019-05-15T07:56:49.000Z,0.38
2019-05-15T07:57:49.000Z,0.17
2019-05-15T07:58:49.000Z,0.26
2019-05-15T07:59:49.000Z,0.55
2019-05-15T08:00:49.000Z,0.21
2019-05-15T08:01:49.000Z,-0.23
2019-05-15T08:02:49.000Z,-0.05
2019-05-15T08:03:49.000Z,-0.11
2019-05-15T08:04:49.000Z,-0.03
2019-05-15T08:05:49.000Z,-0.40
2019-05-15T08:06:49.000Z,-0.16
2019-05-15T08:07:49.000Z,-0.24
2019-05-15T08:08:49.000Z,-0.40
2019-05-15T08:09:49.000Z,-0.55
2019-05-15T08:10:49.000Z,-0.45
2019-05-15T08:11:49.000Z,-0.36
2019-05-15T08:12:49.000Z,-0.45
2019-05-15T08:13:49.000Z,-0.14
2019-05-15T08:14:49.000Z,-0.50
2019-05-15T08:15:49.000Z,-0.30
2019-05-15T08:16:49.000Z,-0.53
2019-05-15T08:17:49.000Z,-0.73
2019-05-15T08:18:49.000Z,-0.26
2019-05-15T08:19:49.000Z,-0.17
2019-05-15T08:20:49.000Z,-0.03
2019-05-15T08:21:49.000Z,0.28
2019-05-15T08:22:49.000Z,0.29
2019-05-15T08:23:49.000Z,0.26
2019-05-15T08:24:49.000Z,0.32
2019-05-15T08:25:49.000Z,0.35
2019-05-15T08:26:49.000Z,0.31
2019-05-15T08:27:49.000Z,-0.23
2019-05-15T08:28:49.000Z,-0.37
2019-05-15T08:29:49.000Z,-0.57
2019-05-15T08:30:49.000Z,-0.41
2019-05-15T08:31:49.000Z,-0.15
2019-05-15T08:32:49.000Z,-0.42
2019-05-15T08:33:49.000Z,-0.44
2019-05-15T08:34:49.000Z,-0.16
2019-05-15T08:35:49.000Z,-0.38
2019-05-15T08:36:49.000Z,0.12
2019-05-15T08:37:49.000Z,0.12
2019-05-15T08:38:49.000Z,0.20
2019-05-15T08:39:49.000Z,0.02
2019-05-15T08:40:49.000Z,-0.10
2019-05-15T08:41:50.000Z,-0.18
2019-05-15T08:42:49.000Z,0.02
2019-05-15T08:43:49.000Z,0.30
2019-05-15T08:44:49.000Z,0.27
2019-05-15T08:45:49.000Z,0.15
2019-05-15T08:46:49.000Z,0.40
2019-05-15T08:47:49.000Z,0.23
2019-05-15T08:48:49.000Z,0.88
2019-05-15T08:49:49.000Z,0.77
2019-05-15T08:50:49.000Z,0.96
2019-05-15T08:51:49.000Z,0.51
2019-05-15T08:52:49.000Z,0.46
2019-05-15T08:53:49.000Z,0.37
2019-05-15T08:54:49.000Z,0.27
2019-05-15T08:55:49.000Z,0.12
2019-05-15T08:56:49.000Z,0.16
2019-05-15T08:57:49.000Z,-0.22
2019-05-15T08:58:49.000Z,-0.00
2019-05-15T08:59:49.000Z,0.26
2019-05-15T09:00:49.000Z,-0.05
2019-05-15T09:01:49.000Z,-0.27
2019-05-15T09:02:49.000Z,-0.52
2019-05-15T09:03:49.000Z,0.00
2019-05-15T09:04:49.000Z,-0.00
2019-05-15T09:05:49.000Z,0.02
2019-05-15T09:06:49.000Z,-0.18
2019-05-15T09:07:49.000Z,0.23
2019-05-15T09:08:49.000Z,-0.47
2019-05-15T09:09:49.000Z,-0.01
2019-05-15T09:10:49.000Z,0.16
2019-05-15T09:11:49.000Z,-0.00
2019-05-15T09:12:49.000Z,-0.13
2019-05-15T09:13:49.000Z,-0.21
2019-05-15T09:14:49.000Z,-0.07
2019-05-15T09:15:49.000Z,-0.17
2019-05-15T09:16:49.000Z,-0.01
2019-05-15T09:17:49.000Z,0.05
2019-05-15T09:18:49.000Z,-0.19
2019-05-15T09:19:49.000Z,-0.12
2019-05-15T09:20:49.000Z,-0.08
2019-05-15T09:21:49.000Z,-0.34
2019-05-15T09:22:49.000Z,-0.51
2019-05-15T09:23:49.000Z,-0.40
2019-05-15T09:24:49.000Z,-0.15
2019-05-15T09:25:49.000Z,-0.40
2019-05-15T09:26:49.000Z,-0.83
2019-05-15T09:27:49.000Z,-0.42
2019-05-15T09:28:49.000Z,-0.62
2019-05-15T09:29:49.000Z,-0.17
2019-05-15T09:30:49.000Z,0.47
2019-05-15T09:31:49.000Z,0.46
2019-05-15T09:32:49.000Z,0.29
2019-05-15T09:33:49.000Z,0.16
2019-05-15T09:34:49.000Z,-0.08
2019-05-15T09:35:49.000Z,-0.08
2019-05-15T09:36:49.000Z,0.24
2019-05-15T09:37:49.000Z,0.30
2019-05-15T09:38:49.000Z,-0.20
2019-05-15T09:39:49.000Z,-0.25
2019-05-15T09:40:49.000Z,-0.12
2019-05-15T09:41:49.000Z,0.08
2019-05-15T09:42:49.000Z,0.04
2019-05-15T09:43:49.000Z,-0.46
2019-05-15T09:44:49.000Z,0.35
2019-05-15T09:45:49.000Z,0.03
2019-05-15T09:46:49.000Z,-0.78
2019-05-15T09:47:49.000Z,-0.69
2019-05-15T09:48:49.000Z,-0.29
2019-05-15T09:49:49.000Z,-0.12
2019-05-15T09:50:49.000Z,-0.55
2019-05-15T09:51:49.000Z,-0.39
2019-05-15T09:52:49.000Z,-0.28
2019-05-15T09:53:49.000Z,-0.22
2019-05-15T09:54:49.000Z,-0.21
2019-05-15T09:55:49.000Z,-0.43
2019-05-15T09:56:49.000Z,-0.53
2019-05-15T09:57:49.000Z,-0.26
2019-05-15T09:59:46.000Z,-0.13
2019-05-15T10:00:46.000Z,0.19
2019-05-15T10:01:46.000Z,0.05
2019-05-15T10:02:46.000Z,0.08
2019-05-15T10:03:46.000Z,0.22
2019-05-15T10:04:46.000Z,0.05
2019-05-15T10:05:46.000Z,0.18
2019-05-15T10:06:46.000Z,-0.34
2019-05-15T10:07:46.000Z,-0.78
2019-05-15T10:08:46.000Z,-0.46
2019-05-15T10:09:46.000Z,-0.31
2019-05-15T10:10:46.000Z,-0.39
2019-05-15T10:11:46.000Z,-0.51
2019-05-15T10:12:46.000Z,-0.06
2019-05-15T10:13:46.000Z,-0.12
2019-05-15T10:14:46.000Z,-0.19
2019-05-15T10:15:46.000Z,-0.02
2019-05-15T10:16:46.000Z,-0.13
2019-05-15T10:17:46.000Z,-0.07
2019-05-15T10:18:46.000Z,-0.07
2019-05-15T10:19:46.000Z,-0.04
2019-05-15T10:20:46.000Z,0.29
2019-05-15T10:21:46.000Z,-0.37
2019-05-15T10:22:46.000Z,-0.97
2019-05-15T10:23:46.000Z,-0.88
2019-05-15T10:24:46.000Z,-0.33
2019-05-15T10:25:46.000Z,-0.58
2019-05-15T10:26:46.000Z,-0.32
2019-05-15T10:27:46.000Z,0.03
2019-05-15T10:28:46.000Z,0.08
2019-05-15T10:29:46.000Z,-0.05
2019-05-15T10:30:46.000Z,-0.13
2019-05-15T10:31:46.000Z,-0.31
2019-05-15T10:32:46.000Z,-0.56
2019-05-15T10:33:46.000Z,-0.31
2019-05-15T10:34:46.000Z,-0.10
2019-05-15T10:35:46.000Z,-0.21
2019-05-15T10:36:46.000Z,-0.09
2019-05-15T10:37:46.000Z,-0.19
2019-05-15T10:38:46.000Z,-0.06
2019-05-15T10:39:47.000Z,-0.05
2019-05-15T10:40:46.000Z,0.05
2019-05-15T10:41:46.000Z,-0.07
2019-05-15T10:42:46.000Z,-0.25
2019-05-15T10:43:46.000Z,-0.08
2019-05-15T10:44:46.000Z,0.63
2019-05-15T10:45:46.000Z,0.16
2019-05-15T10:46:46.000Z,0.14
2019-05-15T10:47:46.000Z,-0.10
2019-05-15T10:48:46.000Z,0.01
2019-05-15T10:49:46.000Z,-0.23
2019-05-15T10:50:46.000Z,-0.30
2019-05-15T10:51:47.000Z,-0.07
2019-05-15T10:52:47.000Z,-0.72
2019-05-15T10:53:46.000Z,-0.35
2019-05-15T10:54:46.000Z,-0.40
2019-05-15T10:55:46.000Z,-0.31
2019-05-15T10:56:46.000Z,-0.13
2019-05-15T10:57:48.000Z,-0.22
2019-05-15T10:58:46.000Z,-0.20
2019-05-15T10:59:46.000Z,-0.06
2019-05-15T11:00:48.000Z,-0.28
2019-05-15T11:01:47.000Z,-0.55
2019-05-15T11:02:47.000Z,-0.56
2019-05-15T11:03:47.000Z,-0.23
2019-05-15T11:04:47.000Z,-0.39
2019-05-15T11:05:47.000Z,0.02
2019-05-15T11:06:47.000Z,-0.24
2019-05-15T11:07:47.000Z,-0.18
2019-05-15T11:08:47.000Z,-0.02
2019-05-15T11:09:47.000Z,0.39
2019-05-15T11:10:47.000Z,-0.11
2019-05-15T11:11:47.000Z,-0.35
2019-05-15T11:12:47.000Z,-0.48
2019-05-15T11:13:47.000Z,-0.31
2019-05-15T11:14:47.000Z,-1.16
2019-05-15T11:15:47.000Z,-1.16
2019-05-15T11:16:47.000Z,-0.93
2019-05-15T11:17:47.000Z,-0.56
2019-05-15T11:18:47.000Z,-0.84
2019-05-15T11:19:47.000Z,-0.67
2019-05-15T11:20:47.000Z,-0.54
2019-05-15T11:21:47.000Z,-1.05
2019-05-15T11:22:48.000Z,-1.58
2019-05-15T11:23:47.000Z,-0.85
2019-05-15T11:24:47.000Z,-1.11
2019-05-15T11:25:47.000Z,-0.87
2019-05-15T11:26:47.000Z,-1.32
2019-05-15T11:27:47.000Z,-1.03
2019-05-15T11:28:47.000Z,-0.16
2019-05-15T11:29:47.000Z,-0.01
2019-05-15T11:30:47.000Z,0.05
2019-05-15T11:31:47.000Z,-0.18
2019-05-15T11:32:47.000Z,-0.17
2019-05-15T11:33:47.000Z,0.13
2019-05-15T11:34:47.000Z,0.39
2019-05-15T11:35:47.000Z,0.64
2019-05-15T11:36:47.000Z,0.29
2019-05-15T11:37:47.000Z,0.44
2019-05-15T11:38:47.000Z,0.08
2019-05-15T11:39:47.000Z,-0.23
2019-05-15T11:40:47.000Z,0.15
2019-05-15T11:41:47.000Z,-0.08
2019-05-15T11:42:47.000Z,0.15
2019-05-15T11:43:47.000Z,0.39
2019-05-15T11:44:47.000Z,-0.04
2019-05-15T11:45:47.000Z,-0.62
2019-05-15T11:46:47.000Z,-0.15
2019-05-15T11:47:47.000Z,-0.09
2019-05-15T11:48:47.000Z,0.42
2019-05-15T11:49:47.000Z,0.08
2019-05-15T11:50:47.000Z,0.25
2019-05-15T11:51:47.000Z,0.15
2019-05-15T11:52:47.000Z,0.15
2019-05-15T11:53:47.000Z,0.38
2019-05-15T11:54:47.000Z,0.17
2019-05-15T11:55:47.000Z,0.17
2019-05-15T11:56:47.000Z,-0.05
2019-05-15T11:57:47.000Z,0.62
2019-05-15T11:58:47.000Z,0.50
2019-05-15T11:59:47.000Z,0.32
2019-05-15T12:00:47.000Z,0.41
2019-05-15T12:01:47.000Z,0.75
2019-05-15T12:02:47.000Z,1.06
2019-05-15T12:03:47.000Z,0.67
2019-05-15T12:04:47.000Z,1.03
2019-05-15T12:05:47.000Z,0.94
2019-05-15T12:06:47.000Z,1.25
2019-05-15T12:07:47.000Z,0.61
2019-05-15T12:08:47.000Z,0.94
2019-05-15T12:09:47.000Z,0.62
2019-05-15T12:10:47.000Z,1.23
2019-05-15T12:11:47.000Z,1.13
2019-05-15T12:12:47.000Z,1.19
2019-05-15T12:13:47.000Z,1.40
2019-05-15T12:14:47.000Z,1.43
2019-05-15T12:15:47.000Z,1.41
2019-05-15T12:16:47.000Z,1.33
2019-05-15T12:17:47.000Z,0.25
2019-05-15T12:18:47.000Z,0.83
2019-05-15T12:19:47.000Z,1.01
2019-05-15T12:20:47.000Z,0.97
2019-05-15T12:21:47.000Z,0.49
2019-05-15T12:22:47.000Z,1.02
2019-05-15T12:23:47.000Z,0.36
2019-05-15T12:24:47.000Z,0.57
2019-05-15T12:25:47.000Z,0.88
2019-05-15T12:26:47.000Z,0.53
2019-05-15T12:27:47.000Z,0.57
2019-05-15T12:28:47.000Z,0.86
2019-05-15T12:29:47.000Z,0.64
2019-05-15T12:30:47.000Z,0.23
2019-05-15T12:31:47.000Z,0.96
2019-05-15T12:32:47.000Z,0.94
2019-05-15T12:33:47.000Z,0.54
2019-05-15T12:34:47.000Z,0.60
2019-05-15T12:35:47.000Z,1.07
2019-05-15T12:36:47.000Z,1.01
2019-05-15T12:37:47.000Z,1.01
2019-05-15T12:38:47.000Z,1.39
2019-05-15T12:39:47.000Z,1.65
2019-05-15T12:40:47.000Z,1.62
2019-05-15T12:41:47.000Z,1.03
2019-05-15T12:42:47.000Z,1.24
2019-05-15T12:43:47.000Z,0.59
2019-05-15T12:59:47.000Z,1.06
2019-05-15T13:00:47.000Z,0.92
2019-05-15T13:01:46.000Z,1.13
2019-05-15T13:02:47.000Z,0.86
2019-05-15T13:03:47.000Z,-0.61
2019-05-15T13:04:46.000Z,-0.14
2019-05-15T13:05:46.000Z,-0.63
2019-05-15T13:06:46.000Z,-0.13
2019-05-15T13:07:46.000Z,-0.47
2019-05-15T13:08:46.000Z,-0.17
2019-05-15T13:09:47.000Z,0.03
2019-05-15T13:10:46.000Z,-0.12
2019-05-15T13:11:46.000Z,0.12
2019-05-15T13:12:46.000Z,0.40
2019-05-15T13:13:47.000Z,0.29
2019-05-15T13:14:46.000Z,0.34
2019-05-15T13:15:46.000Z,0.49
2019-05-15T13:16:47.000Z,-0.32
2019-05-15T13:17:46.000Z,-0.74
2019-05-15T13:18:47.000Z,-0.63
2019-05-15T13:19:46.000Z,-0.45
2019-05-15T13:20:46.000Z,-0.85
2019-05-15T13:21:46.000Z,-0.84
2019-05-15T13:23:46.000Z,-0.35
2019-05-15T13:24:47.000Z,-0.22
2019-05-15T13:25:47.000Z,-0.76
2019-05-15T13:26:46.000Z,-0.88
2019-05-15T13:27:46.000Z,-0.18
2019-05-15T13:28:46.000Z,-0.38
2019-05-15T13:29:46.000Z,-0.46
2019-05-15T13:30:46.000Z,0.16
2019-05-15T13:31:47.000Z,-0.39
2019-05-15T13:32:47.000Z,-0.32
2019-05-15T13:33:46.000Z,-0.33
2019-05-15T13:34:47.000Z,-0.52
2019-05-15T13:35:47.000Z,-1.18
2019-05-15T13:36:46.000Z,-0.66
2019-05-15T13:37:47.000Z,-0.73
2019-05-15T13:38:46.000Z,-1.36
2019-05-15T13:39:46.000Z,-0.92
2019-05-15T13:40:46.000Z,-0.39
2019-05-15T13:41:46.000Z,-1.46
2019-05-15T13:42:46.000Z,-1.12
2019-05-15T13:43:47.000Z,-0.84
2019-05-15T13:44:46.000Z,-0.97
2019-05-15T13:45:46.000Z,-0.37
2019-05-15T13:46:47.000Z,-0.42
2019-05-15T13:47:46.000Z,-0.51
2019-05-15T13:48:46.000Z,-0.00
2019-05-15T13:49:46.000Z,-1.22
2019-05-15T13:50:47.000Z,-0.62
2019-05-15T13:51:47.000Z,-0.30
2019-05-15T13:52:47.000Z,-0.38